Time;durP1;ratioP1;P1;durP2;ratioP2;P2;SDS_P1;SDS_P2;PMS_P1;PMS_P2;Temp;Humidity;BMP_temperature;BMP_pressure;BME280_temperature;BME280_humidity;BME280_pressure;Samples;Min_cycle;Max_cycle;Signal;HPM_P1;HPM_P2
2022/01/16 00:00:40;;;;;;;13.38;6.63;;;;;;;2.71;56.87;101049.31;5069660;28;20115;-20
2022/01/16 00:05:54;;;;;;;17.50;9.30;;;;;;;2.47;57.95;101054.22;5069764;28;20036;-21
2022/01/16 00:08:19;;;;;;;19.90;9.90;;;;;;;2.52;57.76;101052.00;5068182;28;20032;-20
2022/01/16 00:10:44;;;;;;;89.57;35.33;;;;;;;2.63;59.79;101053.63;5068048;28;20491;-20
2022/01/16 00:13:10;;;;;;;22.70;11.82;;;;;;;2.51;59.24;101066.13;5069031;28;20025;-20
2022/01/16 00:15:35;;;;;;;36.10;26.83;;;;;;;2.36;60.87;101068.38;5067598;28;20186;-21
2022/01/16 00:20:29;;;;;;;29.08;18.38;;;;;;;1.70;62.28;101059.38;5064439;28;20056;-21
2022/01/16 00:22:57;;;;;;;32.47;25.23;;;;;;;1.76;62.83;101097.47;5061132;28;20056;-20
2022/01/16 00:25:22;;;;;;;47.10;35.28;;;;;;;2.03;62.05;101104.69;5069107;28;20100;-21
2022/01/16 00:27:48;;;;;;;41.83;27.45;;;;;;;2.11;61.75;101117.97;5048410;28;20488;-21
2022/01/16 00:30:13;;;;;;;46.92;30.08;;;;;;;2.24;61.30;101149.28;5048273;28;20107;-20
2022/01/16 00:32:39;;;;;;;28.35;19.08;;;;;;;1.96;62.32;101190.38;5050015;28;20017;-21
2022/01/16 00:35:05;;;;;;;25.25;14.75;;;;;;;1.92;62.67;101229.28;5059388;28;20154;-21
2022/01/16 00:37:30;;;;;;;24.17;13.88;;;;;;;1.99;62.75;101219.88;5057433;28;20086;-20
2022/01/16 00:39:56;;;;;;;26.10;16.08;;;;;;;1.95;62.97;101157.97;5058150;28;20039;-20
2022/01/16 00:42:21;;;;;;;22.95;14.40;;;;;;;1.84;63.33;101100.25;5059004;28;20032;-21
2022/01/16 00:44:46;;;;;;;27.83;13.68;;;;;;;1.59;63.44;101060.34;5058270;28;20044;-21
2022/01/16 00:47:12;;;;;;;234.43;140.57;;;;;;;1.40;64.95;100970.94;5066737;28;20405;-20
2022/01/16 00:49:39;;;;;;;275.65;187.30;;;;;;;1.44;64.63;100951.28;5067325;28;20193;-21
2022/01/16 00:52:08;;;;;;;407.02;236.38;;;;;;;1.41;64.83;100946.31;5068262;28;20028;-22
2022/01/16 00:54:33;;;;;;;328.38;200.57;;;;;;;1.11;65.17;100923.59;5068355;28;20148;-20
2022/01/16 00:56:59;;;;;;;98.65;65.40;;;;;;;0.97;66.16;100969.47;5068233;28;20024;-23
2022/01/16 00:59:24;;;;;;;115.32;94.13;;;;;;;1.19;65.34;100961.34;5066928;28;20037;-21
2022/01/16 01:01:50;;;;;;;46.15;36.00;;;;;;;1.06;64.99;100989.66;5068093;28;20035;-22
2022/01/16 01:04:16;;;;;;;66.38;45.25;;;;;;;0.97;66.00;101024.63;5066976;28;20036;-21
2022/01/16 01:06:41;;;;;;;88.55;50.00;;;;;;;1.19;64.71;101063.81;5068184;28;20032;-21
2022/01/16 01:09:07;;;;;;;48.78;26.38;;;;;;;1.06;65.64;101086.84;5067878;28;20047;-22
2022/01/16 01:11:32;;;;;;;52.67;44.58;;;;;;;1.31;64.82;101101.34;5068144;28;20059;-21
2022/01/16 01:16:37;;;;;;;239.52;122.25;;;;;;;1.52;63.85;101068.91;5067837;28;20036;-20
2022/01/16 01:19:03;;;;;;;106.95;67.65;;;;;;;1.77;63.11;101064.91;5065989;28;20135;-21
2022/01/16 01:21:28;;;;;;;110.45;76.32;;;;;;;1.44;64.83;101064.31;5049879;28;20043;-20
2022/01/16 01:23:55;;;;;;;49.92;31.80;;;;;;;1.50;64.18;101071.66;5066194;28;20036;-20
2022/01/16 01:26:25;;;;;;;38.13;27.13;;;;;;;1.46;64.25;101083.41;5067725;28;20020;-21
2022/01/16 01:28:51;;;;;;;26.65;12.35;;;;;;;1.82;63.14;101091.66;5066127;28;20042;-20
2022/01/16 01:31:16;;;;;;;23.70;13.57;;;;;;;1.68;63.42;101084.16;5067607;28;20033;-21
2022/01/16 01:33:42;;;;;;;23.90;12.32;;;;;;;1.87;62.46;101078.09;5067643;28;20706;-20
2022/01/16 01:36:07;;;;;;;24.17;12.73;;;;;;;1.86;62.54;101092.19;5067571;28;20036;-21
2022/01/16 01:38:33;;;;;;;33.80;18.30;;;;;;;1.47;63.09;101074.56;5067524;28;20600;-21
2022/01/16 01:40:58;;;;;;;22.02;13.48;;;;;;;1.10;64.80;101111.91;5067122;28;20040;-21
2022/01/16 01:51:22;;;;;;;27.80;13.00;;;;;;;0.40;66.79;101134.41;5067041;28;20098;-21
2022/01/16 01:53:47;;;;;;;28.13;13.82;;;;;;;0.73;65.74;101109.78;5065922;28;20242;-21
2022/01/16 01:56:14;;;;;;;31.70;14.15;;;;;;;1.16;64.26;101136.81;5067332;28;20036;-21
2022/01/16 01:58:39;;;;;;;22.75;12.05;;;;;;;1.00;64.78;101132.03;5067489;28;20016;-21
2022/01/16 02:01:05;;;;;;;24.17;11.95;;;;;;;0.85;65.31;101126.28;5067062;28;20093;-21
2022/01/16 02:06:06;;;;;;;23.88;11.50;;;;;;;1.30;64.10;101128.59;5065807;28;20032;-22
2022/01/16 02:08:34;;;;;;;20.45;10.50;;;;;;;1.26;63.19;101114.03;5065670;28;20450;-21
2022/01/16 02:11:02;;;;;;;21.02;11.13;;;;;;;1.64;62.44;101138.00;5065792;28;20492;-21
2022/01/16 02:13:32;;;;;;;23.08;11.43;;;;;;;0.89;64.37;101140.00;5067072;28;20041;-21
2022/01/16 02:37:01;;;;;;;;;;;;;;;1.15;65.14;101137.81;5087361;28;20507;-21
2022/01/16 02:39:29;;;;;;;28.48;15.18;;;;;;;0.99;65.48;101131.22;5069225;28;19908;-20
2022/01/16 02:41:57;;;;;;;33.45;20.38;;;;;;;0.56;66.98;101142.69;5087027;28;20032;-21
2022/01/16 02:44:32;;;;;;;34.80;18.75;;;;;;;0.87;66.90;101141.94;5087187;28;20027;-21
2022/01/16 02:46:57;;;;;;;34.15;18.08;;;;;;;0.77;66.43;101137.44;5086850;28;20266;-21
2022/01/16 02:49:26;;;;;;;33.72;15.20;;;;;;;0.49;67.43;101132.81;5087089;28;20028;-20
2022/01/16 02:51:59;;;;;;;30.45;15.38;;;;;;;0.29;68.99;101132.69;5087006;28;20032;-21
2022/01/16 02:54:26;;;;;;;39.00;22.05;;;;;;;0.29;68.50;101132.69;5068746;28;20095;-21
2022/01/16 02:56:52;;;;;;;51.47;26.27;;;;;;;0.30;68.07;101117.78;5087015;28;20036;-20
2022/01/16 02:59:18;;;;;;;44.80;20.95;;;;;;;0.44;67.33;101129.75;5086854;28;20039;-21
2022/01/16 03:01:43;;;;;;;35.33;19.05;;;;;;;0.29;68.37;101122.19;5086928;28;20119;-21
2022/01/16 03:04:09;;;;;;;43.35;20.85;;;;;;;0.70;65.58;101120.53;5088608;28;20103;-21
2022/01/16 03:06:34;;;;;;;42.00;20.63;;;;;;;0.43;66.30;101131.56;5072371;28;20059;-20
2022/01/16 03:09:00;;;;;;;43.03;22.05;;;;;;;0.60;66.26;101130.16;5090094;28;20035;-21
2022/01/16 03:11:35;;;;;;;40.20;20.85;;;;;;;0.68;64.74;101124.28;5090660;28;20071;-20
2022/01/16 03:14:03;;;;;;;36.50;20.42;;;;;;;0.47;65.78;101119.00;5073845;28;20027;-21
2022/01/16 03:16:28;;;;;;;57.55;34.28;;;;;;;0.43;65.35;101104.47;5090493;28;20040;-21
2022/01/16 03:22:02;;;;;;;41.58;22.55;;;;;;;-0.32;67.52;101117.50;5090475;28;20128;-21
2022/01/16 03:24:31;;;;;;;38.22;20.17;;;;;;;0.05;65.96;101124.19;5090427;28;20487;-20
2022/01/16 03:26:58;;;;;;;31.98;19.55;;;;;;;-0.01;66.31;101131.59;5072051;28;20051;-21
2022/01/16 03:29:24;;;;;;;37.53;20.67;;;;;;;-0.20;66.57;101134.03;5090421;28;20081;-20
2022/01/16 03:31:50;;;;;;;33.25;18.52;;;;;;;0.06;66.59;101125.84;5090060;28;20107;-21
2022/01/16 03:34:15;;;;;;;39.08;24.85;;;;;;;-0.14;66.40;101120.44;5072117;28;20115;-20
2022/01/16 03:36:41;;;;;;;31.30;16.83;;;;;;;-0.14;66.52;101136.16;5090338;28;20031;-21
2022/01/16 03:39:06;;;;;;;32.72;17.15;;;;;;;0.08;66.13;101131.81;5089905;28;20031;-21
2022/01/16 03:41:34;;;;;;;32.30;19.80;;;;;;;-0.05;65.60;101147.69;5072264;28;20164;-21
2022/01/16 03:44:02;;;;;;;33.43;18.47;;;;;;;-0.15;65.92;101129.25;5055283;28;20115;-20
2022/01/16 03:46:34;;;;;;;30.38;16.45;;;;;;;-0.64;67.89;101146.22;5072086;28;20104;-22
2022/01/16 03:49:19;;;;;;;37.72;19.00;;;;;;;-0.96;69.08;101146.09;5089657;28;20035;-21
2022/01/16 03:51:47;;;;;;;39.50;21.52;;;;;;;-1.36;71.31;101157.78;5089174;28;20126;-21
2022/01/16 03:54:14;;;;;;;40.25;21.27;;;;;;;-1.24;71.42;101150.81;5071815;28;20032;-21
2022/01/16 03:56:39;;;;;;;38.85;19.23;;;;;;;-0.89;69.91;101155.97;5089744;28;20032;-21
2022/01/16 03:59:05;;;;;;;34.75;18.90;;;;;;;-0.63;69.00;101158.38;5071304;28;20035;-21
2022/01/16 04:01:30;;;;;;;39.58;21.45;;;;;;;-1.10;71.13;101165.50;5054818;28;20127;-21
2022/01/16 04:03:56;;;;;;;36.60;18.92;;;;;;;-1.37;71.76;101176.22;5089685;28;20120;-20
2022/01/16 04:06:21;;;;;;;33.13;16.92;;;;;;;-1.80;71.95;101169.75;5089710;28;20097;-21
2022/01/16 04:08:48;;;;;;;29.33;16.42;;;;;;;-1.95;71.92;101155.19;5071406;28;20020;-21
2022/01/16 04:11:14;;;;;;;34.80;17.58;;;;;;;-1.28;70.13;101175.56;5070727;28;20502;-21
2022/01/16 04:13:48;;;;;;;33.10;16.77;;;;;;;-1.52;70.34;101162.50;5089567;28;20112;-20
2022/01/16 04:16:13;;;;;;;33.50;17.55;;;;;;;-1.59;71.66;101190.03;5089156;28;20024;-21
2022/01/16 04:18:39;;;;;;;34.15;17.33;;;;;;;-1.36;70.51;101188.38;5071077;28;20565;-20
2022/01/16 04:21:04;;;;;;;31.17;15.82;;;;;;;-1.06;70.07;101191.31;5089180;28;20093;-20
2022/01/16 04:23:30;;;;;;;34.75;17.80;;;;;;;-0.90;69.91;101195.38;5089185;28;20039;-20
2022/01/16 04:25:55;;;;;;;36.15;17.80;;;;;;;-1.13;71.04;101189.25;5070668;28;20115;-21
2022/01/16 04:28:24;;;;;;;28.80;15.57;;;;;;;-0.94;70.31;101200.03;5089053;28;20057;-21
2022/01/16 04:30:50;;;;;;;32.53;16.75;;;;;;;-0.69;69.44;101196.38;5088959;28;20036;-21
2022/01/16 04:33:16;;;;;;;33.97;16.52;;;;;;;-0.57;68.80;101180.63;5088885;28;20093;-21
2022/01/16 04:35:41;;;;;;;31.40;17.73;;;;;;;-0.38;67.71;101211.50;5070748;28;20028;-22
2022/01/16 04:38:07;;;;;;;33.88;18.23;;;;;;;-0.16;66.86;101208.00;5070674;28;20529;-21
2022/01/16 04:40:41;;;;;;;31.65;16.05;;;;;;;-1.15;69.41;101164.97;5070460;28;20028;-21
2022/01/16 04:45:51;;;;;;;36.70;17.60;;;;;;;-0.45;68.12;101193.63;5089087;28;20089;-20
2022/01/16 04:48:16;;;;;;;35.03;17.85;;;;;;;-0.24;66.93;101200.78;5088741;28;20036;-20
2022/01/16 04:50:42;;;;;;;34.53;17.73;;;;;;;-0.32;67.42;101200.53;5070307;28;20035;-22
2022/01/16 04:53:08;;;;;;;37.13;19.27;;;;;;;-0.21;66.42;101196.09;5069926;28;20043;-21
2022/01/16 04:55:34;;;;;;;39.22;20.02;;;;;;;-0.29;67.13;101187.19;5070256;28;20428;-21
2022/01/16 04:57:59;;;;;;;33.70;19.10;;;;;;;-0.71;68.01;101168.63;5088644;28;20054;-21
2022/01/16 05:00:24;;;;;;;38.70;19.35;;;;;;;-0.78;68.96;101183.97;5070351;28;20031;-22
2022/01/16 05:02:50;;;;;;;36.55;18.73;;;;;;;-0.48;67.54;101185.19;5088419;28;20067;-21
2022/01/16 05:05:15;;;;;;;38.78;19.02;;;;;;;-0.31;67.26;101192.53;5088651;28;20559;-21
2022/01/16 05:07:41;;;;;;;40.25;20.40;;;;;;;-0.42;68.39;101210.91;5088205;28;20036;-21
2022/01/16 05:10:07;;;;;;;36.53;20.75;;;;;;;-0.17;67.34;101188.84;5088223;28;20051;-21
2022/01/16 05:12:35;;;;;;;39.95;23.27;;;;;;;-0.30;67.78;101209.13;5088291;28;20062;-20
2022/01/16 05:17:45;;;;;;;54.10;26.10;;;;;;;-1.13;69.33;101204.97;5088401;28;20142;-21
2022/01/16 05:20:10;;;;;;;61.05;29.08;;;;;;;-1.27;69.91;101192.91;5087792;28;20507;-21
2022/01/16 05:22:36;;;;;;;57.50;26.75;;;;;;;-0.91;69.20;101197.16;5087790;28;20036;-20
2022/01/16 05:25:04;;;;;;;59.78;25.77;;;;;;;-0.90;67.80;101191.00;5087774;28;20028;-21
2022/01/16 05:27:29;;;;;;;64.27;32.53;;;;;;;-0.95;69.18;101198.34;5087293;28;20035;-21
2022/01/16 05:29:55;;;;;;;44.55;25.27;;;;;;;-1.07;69.12;101201.88;5088215;28;20036;-20
2022/01/16 05:32:20;;;;;;;57.78;28.52;;;;;;;-1.02;69.85;101208.47;5069591;28;20480;-21
2022/01/16 05:34:46;;;;;;;61.47;29.85;;;;;;;-0.70;68.86;101218.25;5087511;28;20407;-21
2022/01/16 05:37:11;;;;;;;53.90;27.10;;;;;;;-1.30;68.83;101186.13;5069573;28;20031;-21
2022/01/16 05:39:38;;;;;;;65.55;30.98;;;;;;;-0.96;68.86;101209.78;5087643;28;20032;-20
2022/01/16 05:42:04;;;;;;;66.18;32.80;;;;;;;-0.88;67.95;101219.66;5068974;28;20047;-21
2022/01/16 05:44:30;;;;;;;66.57;33.13;;;;;;;-1.05;69.26;101213.91;5087554;28;20165;-21
2022/01/16 05:46:55;;;;;;;73.40;35.15;;;;;;;-0.97;68.53;101178.47;5087632;28;20036;-21
2022/01/16 05:49:21;;;;;;;69.35;35.75;;;;;;;-1.15;69.28;101210.31;5068953;28;20036;-21
2022/01/16 05:51:46;;;;;;;65.78;32.80;;;;;;;-1.14;69.23;101219.84;5087725;28;20028;-21
2022/01/16 05:54:12;;;;;;;56.75;29.55;;;;;;;-1.01;69.09;101209.28;5069340;28;20032;-21
2022/01/16 05:56:37;;;;;;;63.08;30.90;;;;;;;-1.08;69.53;101208.09;5087566;28;20116;-21
2022/01/16 05:59:03;;;;;;;72.65;37.05;;;;;;;-1.13;68.76;101225.91;5087757;28;20024;-21
2022/01/16 06:01:28;;;;;;;74.05;37.30;;;;;;;-0.96;68.40;101238.59;5087520;28;20118;-20
2022/01/16 06:03:54;;;;;;;73.60;39.92;;;;;;;-0.79;67.70;101236.47;5087226;28;20039;-21
2022/01/16 06:06:19;;;;;;;97.75;46.75;;;;;;;-1.13;68.85;101225.91;5069227;28;20423;-21
2022/01/16 06:08:45;;;;;;;98.28;46.00;;;;;;;-0.65;67.23;101242.34;5069034;28;20047;-22
2022/01/16 06:11:11;;;;;;;78.97;42.05;;;;;;;-0.79;68.89;101245.16;5069291;28;20034;-21
2022/01/16 06:13:36;;;;;;;84.45;41.97;;;;;;;-0.79;68.87;101244.34;5069110;28;20032;-20
2022/01/16 06:16:03;;;;;;;82.63;43.95;;;;;;;-0.81;69.45;101247.91;5087328;28;20043;-20
2022/01/16 06:18:29;;;;;;;83.57;48.13;;;;;;;-1.09;70.15;101264.00;5086867;28;20048;-21
2022/01/16 06:20:55;;;;;;;76.15;40.58;;;;;;;-1.27;71.00;101245.25;5087352;28;20035;-20
2022/01/16 06:23:20;;;;;;;93.32;48.95;;;;;;;-1.16;70.86;101261.00;5087184;28;20028;-20
2022/01/16 06:25:46;;;;;;;101.55;52.53;;;;;;;-1.27;72.09;101248.72;5087151;28;20571;-22
2022/01/16 06:28:11;;;;;;;125.65;59.72;;;;;;;-1.05;70.53;101261.03;5087168;28;20032;-21
2022/01/16 06:30:36;;;;;;;133.15;67.57;;;;;;;-0.70;70.49;101275.06;5086845;28;20461;-22
2022/01/16 06:33:05;;;;;;;131.82;70.53;;;;;;;-0.23;68.15;101262.72;5086553;28;20024;-21
2022/01/16 06:35:30;;;;;;;;;;;;;;;-0.01;67.58;101293.34;5069198;28;20032;-21
2022/01/16 06:37:56;;;;;;;147.15;67.75;;;;;;;0.12;67.79;101295.84;5088359;28;19912;-20
2022/01/16 06:40:21;;;;;;;155.82;73.18;;;;;;;0.48;65.87;101304.41;5091318;28;20571;-20
2022/01/16 06:42:47;;;;;;;138.18;71.70;;;;;;;0.20;66.43;101301.31;5090996;28;20032;-21
2022/01/16 06:45:12;;;;;;;126.18;62.15;;;;;;;0.05;66.68;101298.13;5090994;28;20032;-21
2022/01/16 06:47:38;;;;;;;96.53;47.33;;;;;;;-0.28;68.37;101280.63;5090779;28;20028;-22
2022/01/16 06:50:04;;;;;;;98.20;49.28;;;;;;;-0.22;68.85;101312.44;5072757;28;20038;-21
2022/01/16 06:52:30;;;;;;;90.60;46.30;;;;;;;0.05;68.06;101308.63;5072626;28;20020;-21
2022/01/16 06:54:55;;;;;;;104.28;50.00;;;;;;;0.28;67.09;101303.34;5091231;28;20036;-21
2022/01/16 06:57:21;;;;;;;101.35;51.72;;;;;;;0.19;68.04;101286.56;5091186;28;20036;-20
2022/01/16 06:59:47;;;;;;;103.63;51.30;;;;;;;0.53;67.31;101286.47;5091068;28;20032;-21
2022/01/16 07:02:13;;;;;;;115.30;55.08;;;;;;;0.40;67.78;101297.94;5090462;28;20024;-22
2022/01/16 07:04:38;;;;;;;112.53;54.58;;;;;;;0.58;68.01;101294.81;5090777;28;20031;-21
2022/01/16 07:07:04;;;;;;;133.30;58.53;;;;;;;0.66;68.09;101313.41;5090611;28;20059;-21
2022/01/16 07:09:29;;;;;;;124.78;53.35;;;;;;;0.56;67.53;101294.13;5072275;28;20500;-21
2022/01/16 07:11:55;;;;;;;132.13;54.60;;;;;;;0.76;67.31;101330.09;5090669;28;20064;-21
2022/01/16 07:14:20;;;;;;;112.10;49.03;;;;;;;0.93;66.63;101343.66;5090528;28;20036;-21
2022/01/16 07:16:46;;;;;;;110.50;46.63;;;;;;;0.82;66.57;101323.53;5090349;28;20691;-21
2022/01/16 07:19:11;;;;;;;81.13;40.42;;;;;;;1.00;66.46;101347.44;5090314;28;20431;-21
2022/01/16 07:21:37;;;;;;;75.25;40.63;;;;;;;1.28;65.56;101343.38;5072202;28;20040;-21
2022/01/16 07:24:02;;;;;;;65.95;38.85;;;;;;;1.35;65.91;101339.28;5072092;28;20055;-21
2022/01/16 07:26:28;;;;;;;71.95;37.05;;;;;;;1.35;65.61;101343.72;5090307;28;20028;-21
2022/01/16 07:28:53;;;;;;;92.65;55.45;;;;;;;1.47;65.20;101340.06;5072078;28;20153;-21
2022/01/16 07:31:19;;;;;;;58.13;34.22;;;;;;;1.95;63.86;101334.25;5071673;28;20028;-21
2022/01/16 07:33:44;;;;;;;94.10;45.55;;;;;;;2.03;64.47;101345.91;5090373;28;20024;-20
2022/01/16 07:36:10;;;;;;;108.95;50.30;;;;;;;2.25;63.68;101335.22;5072208;28;20020;-21
2022/01/16 07:38:35;;;;;;;98.65;47.80;;;;;;;1.84;65.54;101342.22;5090375;28;20464;-21
2022/01/16 07:41:00;;;;;;;105.82;49.60;;;;;;;2.05;65.27;101341.38;5071786;28;20035;-21
2022/01/16 07:43:26;;;;;;;84.18;43.95;;;;;;;1.63;66.63;101344.84;5090174;28;20863;-21
2022/01/16 07:45:51;;;;;;;75.43;39.72;;;;;;;1.39;68.03;101361.75;5089997;28;20028;-21
2022/01/16 07:48:17;;;;;;;91.68;39.72;;;;;;;1.44;68.14;101347.38;5071843;28;20036;-21
2022/01/16 07:50:42;;;;;;;114.60;43.40;;;;;;;1.72;66.69;101365.13;5089239;28;20472;-21
2022/01/16 07:53:08;;;;;;;100.82;38.97;;;;;;;1.65;67.55;101353.44;5054671;28;20028;-21
2022/01/16 07:55:34;;;;;;;82.03;36.67;;;;;;;1.69;67.03;101354.88;5089805;28;20032;-21
2022/01/16 07:57:59;;;;;;;81.60;43.25;;;;;;;2.08;65.07;101359.50;5089637;28;20055;-21
2022/01/16 08:00:25;;;;;;;54.50;27.88;;;;;;;2.34;63.90;101375.69;5089632;28;20038;-26
2022/01/16 08:02:51;;;;;;;54.92;29.33;;;;;;;2.51;64.82;101367.13;5089855;28;20399;-21
2022/01/16 08:05:17;;;;;;;75.75;46.78;;;;;;;2.45;65.02;101364.22;5089416;28;20484;-20
2022/01/16 08:07:43;;;;;;;53.08;30.10;;;;;;;2.52;65.82;101368.00;5071578;28;20651;-20
2022/01/16 08:10:09;;;;;;;47.03;25.00;;;;;;;2.98;64.32;101374.44;5089399;28;20030;-21
2022/01/16 08:12:34;;;;;;;76.78;42.53;;;;;;;3.06;62.26;101373.78;5089531;28;20024;-21
2022/01/16 08:15:00;;;;;;;45.17;25.63;;;;;;;2.99;61.58;101371.69;5070720;28;20032;-21
2022/01/16 08:17:25;;;;;;;52.08;32.03;;;;;;;3.11;61.60;101346.03;5089392;28;20040;-21
2022/01/16 08:19:51;;;;;;;47.30;28.25;;;;;;;3.49;60.10;101352.25;5067315;28;20045;-21
2022/01/16 08:22:16;;;;;;;49.47;31.08;;;;;;;3.07;61.17;101335.91;5069246;28;20025;-21
2022/01/16 08:24:42;;;;;;;33.17;18.08;;;;;;;3.07;62.06;101357.00;5067541;28;20093;-21
2022/01/16 08:27:07;;;;;;;32.45;16.90;;;;;;;2.70;62.79;101336.56;5067325;28;20424;-21
2022/01/16 08:29:33;;;;;;;32.00;18.92;;;;;;;3.13;61.50;101364.34;5068866;28;20036;-20
2022/01/16 08:31:58;;;;;;;33.38;18.75;;;;;;;3.58;61.01;101351.41;5068739;28;20032;-21
2022/01/16 08:34:23;;;;;;;41.78;20.55;;;;;;;3.36;64.25;101352.53;5069565;28;20040;-20
2022/01/16 08:36:49;;;;;;;34.88;19.20;;;;;;;3.56;63.65;101336.69;5068764;28;20040;-21
2022/01/16 08:39:17;;;;;;;41.00;22.08;;;;;;;3.70;63.69;101345.94;5068675;28;20036;-20
2022/01/16 08:41:43;;;;;;;39.97;20.88;;;;;;;3.18;64.65;101331.31;5068553;28;20033;-21
2022/01/16 08:44:08;;;;;;;37.65;20.40;;;;;;;3.36;64.39;101341.16;5068570;28;20072;-21
2022/01/16 08:46:34;;;;;;;35.88;21.25;;;;;;;3.48;63.28;101347.94;5068487;28;20025;-20
2022/01/16 08:48:59;;;;;;;36.80;20.17;;;;;;;3.63;61.15;101322.78;5067417;28;20036;-20
2022/01/16 08:51:25;;;;;;;38.20;20.30;;;;;;;4.05;61.14;101331.28;5067368;28;20115;-21
2022/01/16 08:53:50;;;;;;;45.28;28.52;;;;;;;4.11;60.84;101336.00;5066956;28;20476;-21
2022/01/16 08:56:16;;;;;;;34.72;19.38;;;;;;;3.85;61.26;101343.72;5068518;28;20496;-21
2022/01/16 08:58:41;;;;;;;35.08;19.15;;;;;;;3.86;63.00;101343.53;5067104;28;20032;-21
2022/01/16 09:01:07;;;;;;;32.42;17.45;;;;;;;3.77;61.52;101323.31;5065650;28;20033;-21
2022/01/16 09:03:32;;;;;;;32.15;17.58;;;;;;;3.88;62.87;101338.13;5068214;28;20161;-20
2022/01/16 09:05:58;;;;;;;32.05;17.83;;;;;;;3.91;61.45;101335.22;5068313;28;20021;-20
2022/01/16 09:08:23;;;;;;;34.35;17.48;;;;;;;4.32;60.45;101339.22;5066893;28;20044;-20
2022/01/16 09:10:49;;;;;;;32.00;17.85;;;;;;;4.29;60.87;101318.41;5068341;28;20041;-20
2022/01/16 09:13:17;;;;;;;32.88;19.13;;;;;;;4.58;59.59;101327.97;5049883;28;20036;-20
2022/01/16 09:15:44;;;;;;;37.97;24.35;;;;;;;5.14;56.76;101326.84;5066639;28;20121;-21
2022/01/16 09:18:09;;;;;;;36.42;21.15;;;;;;;5.21;56.88;101329.69;5068432;28;20048;-21
2022/01/16 09:20:34;;;;;;;49.63;27.55;;;;;;;5.09;55.94;101336.19;5070240;28;20036;-20
2022/01/16 09:23:01;;;;;;;49.88;26.00;;;;;;;5.43;55.73;101323.09;5087995;28;20063;-20
2022/01/16 09:25:27;;;;;;;33.08;17.85;;;;;;;5.22;56.72;101308.41;5088121;28;20526;-20
2022/01/16 09:27:53;;;;;;;32.50;16.60;;;;;;;5.37;54.71;101319.28;5070155;28;20040;-21
2022/01/16 09:30:19;;;;;;;31.42;18.90;;;;;;;5.57;55.37;101303.19;5069930;28;20036;-20
2022/01/16 09:32:44;;;;;;;27.15;16.27;;;;;;;5.09;54.95;101304.47;5087501;28;20028;-22
2022/01/16 09:35:10;;;;;;;27.85;15.80;;;;;;;5.04;55.72;101289.06;5087708;28;20035;-21
2022/01/16 09:37:36;;;;;;;24.40;15.02;;;;;;;5.67;54.95;101308.38;5069675;28;20020;-21
2022/01/16 09:40:02;;;;;;;24.60;15.00;;;;;;;5.71;53.58;101304.44;5069674;28;20032;-20
2022/01/16 09:42:28;;;;;;;25.83;15.57;;;;;;;5.78;52.75;101305.47;5087580;28;20024;-20
2022/01/16 09:44:53;;;;;;;25.10;15.27;;;;;;;5.70;52.66;101302.75;5087669;28;20407;-20
2022/01/16 09:47:19;;;;;;;35.55;21.35;;;;;;;6.10;51.49;101301.38;5087435;28;20028;-21
2022/01/16 09:49:45;;;;;;;24.08;15.05;;;;;;;5.95;51.97;101275.47;5088087;28;20035;-20
2022/01/16 09:52:11;;;;;;;39.00;23.77;;;;;;;5.99;52.88;101274.16;5069679;28;20042;-21
2022/01/16 09:54:37;;;;;;;31.05;23.83;;;;;;;6.65;49.37;101282.31;5087479;28;20028;-21
2022/01/16 09:57:03;;;;;;;25.63;16.30;;;;;;;6.62;49.86;101272.06;5069011;28;20503;-20
2022/01/16 09:59:29;;;;;;;28.77;16.58;;;;;;;6.04;52.21;101263.91;5087368;28;20035;-20
2022/01/16 10:01:54;;;;;;;27.88;16.00;;;;;;;6.16;51.19;101253.88;5087657;28;20031;-21
2022/01/16 10:04:36;;;;;;;29.25;17.30;;;;;;;6.92;51.01;101283.00;5068848;28;20760;-22
2022/01/16 10:07:21;;;;;;;25.40;14.60;;;;;;;6.70;50.30;101264.09;5087150;28;20052;-21
2022/01/16 10:10:09;;;;;;;27.33;15.82;;;;;;;6.61;50.53;101284.44;5086238;28;20043;-21
2022/01/16 10:12:35;;;;;;;30.60;17.20;;;;;;;7.07;49.50;101265.44;5086828;28;20038;-20
2022/01/16 10:15:27;;;;;;;39.60;21.80;;;;;;;6.91;48.63;101265.44;5087099;28;20042;-21
2022/01/16 10:17:55;;;;;;;22.45;11.85;;;;;;;6.68;50.88;101247.53;5064155;28;20039;-21
2022/01/16 10:20:21;;;;;;;19.08;11.90;;;;;;;6.78;49.05;101266.78;5063500;28;20056;-21
2022/01/16 10:22:49;;;;;;;20.60;11.40;;;;;;;6.77;49.45;101254.50;5048931;28;20798;-20
2022/01/16 10:25:15;;;;;;;18.47;11.73;;;;;;;6.69;48.21;101265.09;5066747;28;20116;-20
2022/01/16 10:27:45;;;;;;;22.10;12.00;;;;;;;6.70;48.74;101252.66;5048993;28;20055;-20
2022/01/16 10:30:15;;;;;;;42.22;19.77;;;;;;;7.42;48.16;101260.78;5066972;28;20056;-21
2022/01/16 10:32:42;;;;;;;27.95;14.82;;;;;;;7.17;49.58;101246.69;5066520;28;20029;-21
2022/01/16 10:35:12;;;;;;;123.30;43.30;;;;;;;7.33;48.42;101243.19;5048521;28;20064;-21
2022/01/16 10:37:38;;;;;;;21.63;12.60;;;;;;;7.29;47.51;101244.53;5067052;28;20481;-20
2022/01/16 10:40:14;;;;;;;21.02;12.30;;;;;;;7.38;47.64;101240.88;5048672;28;20515;-22
2022/01/16 10:42:40;;;;;;;31.42;15.45;;;;;;;7.80;47.73;101221.16;5066784;28;20034;-21
2022/01/16 10:45:11;;;;;;;46.95;20.50;;;;;;;7.86;46.60;101228.44;5066346;28;20036;-21
2022/01/16 10:47:37;;;;;;;18.90;11.50;;;;;;;7.84;45.60;101225.13;5066973;28;20111;-20
2022/01/16 10:50:08;;;;;;;18.50;11.65;;;;;;;7.52;45.50;101220.75;5066770;28;20028;-20
2022/01/16 10:52:47;;;;;;;19.10;10.38;;;;;;;7.65;45.52;101229.84;5066807;28;20390;-20
2022/01/16 10:55:13;;;;;;;20.73;11.35;;;;;;;7.92;45.61;101219.78;5066512;28;20060;-21
2022/01/16 10:57:38;;;;;;;18.05;10.95;;;;;;;8.08;44.82;101220.72;5058380;28;20090;-21
2022/01/16 11:00:18;;;;;;;16.88;10.55;;;;;;;8.75;44.54;101223.63;5086992;28;20081;-21
2022/01/16 11:02:45;;;;;;;17.73;10.40;;;;;;;8.78;41.19;101206.47;5086964;28;20031;-22
2022/01/16 11:05:12;;;;;;;17.90;11.13;;;;;;;8.74;43.07;101211.31;5086492;28;20020;-20
2022/01/16 11:07:38;;;;;;;17.77;11.43;;;;;;;9.08;41.15;101206.56;5086924;28;20040;-20
2022/01/16 11:10:27;;;;;;;18.38;10.32;;;;;;;8.72;44.07;101208.00;5086546;28;20097;-20
2022/01/16 11:12:58;;;;;;;18.80;10.60;;;;;;;8.74;43.72;101211.31;5053291;28;20028;-20
2022/01/16 11:15:24;;;;;;;17.63;10.48;;;;;;;9.05;42.10;101202.41;5086794;28;20028;-21
2022/01/16 11:17:50;;;;;;;20.88;10.30;;;;;;;8.96;42.94;101195.53;5086918;28;20111;-20
2022/01/16 11:20:18;;;;;;;23.50;11.80;;;;;;;9.57;40.06;101212.19;5086577;28;20513;-20
2022/01/16 11:25:43;;;;;;;19.00;11.48;;;;;;;10.06;39.48;101200.91;5033392;28;20047;-21
2022/01/16 11:28:16;;;;;;;17.10;9.73;;;;;;;10.39;37.68;101207.66;5090707;28;20103;-20
2022/01/16 11:30:47;;;;;;;16.48;10.02;;;;;;;10.99;38.03;101190.34;5090397;28;20024;-20
2022/01/16 11:33:13;;;;;;;15.32;10.20;;;;;;;11.51;35.40;101204.22;5089769;28;20027;-20
2022/01/16 11:35:49;;;;;;;16.88;9.98;;;;;;;11.59;35.92;101196.06;5072217;28;20024;-21
2022/01/16 11:38:15;;;;;;;17.85;10.50;;;;;;;11.55;35.80;101204.69;5072894;28;20027;-21
2022/01/16 11:40:48;;;;;;;15.55;9.95;;;;;;;12.27;35.04;101192.63;5090194;28;20408;-20
2022/01/16 11:43:35;;;;;;;18.73;11.40;;;;;;;12.53;32.86;101196.41;5089858;28;20084;-20
2022/01/16 11:46:07;;;;;;;16.37;9.93;;;;;;;12.23;33.31;101186.03;5090250;28;20032;-20
2022/01/16 11:48:37;;;;;;;19.33;10.93;;;;;;;12.56;32.40;101187.94;5071408;28;20462;-21
2022/01/16 11:51:26;;;;;;;24.02;14.48;;;;;;;12.90;33.73;101170.06;5089753;28;20031;-21
2022/01/16 11:53:55;;;;;;;20.23;10.88;;;;;;;11.44;35.06;101173.97;5069230;28;20043;-21
2022/01/16 11:56:41;;;;;;;16.77;10.93;;;;;;;11.80;33.76;101183.63;5071401;28;20068;-20
2022/01/16 11:59:26;;;;;;;17.17;10.57;;;;;;;12.60;33.02;101170.44;5069809;28;20036;-21
2022/01/16 12:02:16;;;;;;;21.08;11.38;;;;;;;12.22;34.48;101171.03;5056431;28;21396;-21
2022/01/16 12:04:47;;;;;;;21.45;12.38;;;;;;;12.69;33.45;101165.72;5076203;28;20056;-21